createdAt,value
2023-04-08T00:01:52.380Z,102377.59
2023-04-08T00:04:19.408Z,102376.69
2023-04-08T00:06:46.007Z,102379.38
2023-04-08T00:09:12.449Z,102382.97
2023-04-08T00:11:39.543Z,102382.84
2023-04-08T00:14:06.138Z,102384.91
2023-04-08T00:16:33.084Z,102387.69
2023-04-08T00:18:59.638Z,102384.25
2023-04-08T00:21:27.136Z,102384.44
2023-04-08T00:23:53.700Z,102388.13
2023-04-08T00:26:20.169Z,102386.56
2023-04-08T00:28:47.002Z,102385.53
2023-04-08T00:31:13.529Z,102389.38
2023-04-08T00:33:40.204Z,102387.66
2023-04-08T00:36:06.988Z,102388.59
2023-04-08T00:38:33.421Z,102396.66
2023-04-08T00:40:59.925Z,102391.22
2023-04-08T00:43:26.926Z,102397.47
2023-04-08T00:45:53.549Z,102393.91
2023-04-08T00:48:20.515Z,102393.72
2023-04-08T00:50:47.442Z,102394.56
2023-04-08T00:53:20.322Z,102397.22
2023-04-08T00:55:46.768Z,102392.75
2023-04-08T00:58:14.135Z,102393.72
2023-04-08T01:00:46.858Z,102405.41
2023-04-08T01:03:18.830Z,102404.59
2023-04-08T01:06:00.418Z,102409.13
2023-04-08T01:08:31.393Z,102404.84
2023-04-08T01:11:03.210Z,102412.22
2023-04-08T01:13:35.880Z,102414.91
2023-04-08T01:18:30.441Z,102414.16
2023-04-08T01:20:58.723Z,102411.47
2023-04-08T01:23:37.651Z,102413.34
2023-04-08T01:26:04.693Z,102414.47
2023-04-08T01:28:31.472Z,102409.22
2023-04-08T01:31:01.125Z,102408.41
2023-04-08T01:33:28.909Z,102410.97
2023-04-08T01:35:57.472Z,102407.38
2023-04-08T01:38:26.384Z,102410.25
2023-04-08T01:40:54.493Z,102409.38
2023-04-08T01:43:22.884Z,102417.50
2023-04-08T01:45:50.322Z,102416.56
2023-04-08T01:48:17.814Z,102418.31
2023-04-08T01:50:45.602Z,102425.41
2023-04-08T01:53:13.358Z,102418.19
2023-04-08T01:55:41.784Z,102420.94
2023-04-08T01:58:11.673Z,102428.34
2023-04-08T02:00:41.586Z,102428.22
2023-04-08T02:03:08.973Z,102422.00
2023-04-08T02:05:35.770Z,102425.78
2023-04-08T02:08:02.813Z,102419.53
2023-04-08T02:10:29.377Z,102421.22
2023-04-08T02:12:56.916Z,102423.88
2023-04-08T02:15:25.625Z,102415.81
2023-04-08T02:17:55.837Z,102414.25
2023-04-08T02:20:37.630Z,102418.91
2023-04-08T02:23:21.546Z,102419.69
2023-04-08T02:25:49.534Z,102425.88
2023-04-08T02:28:19.625Z,102428.63
2023-04-08T02:30:51.465Z,102433.22
2023-04-08T02:33:21.243Z,102433.47
2023-04-08T02:35:49.548Z,102438.19
2023-04-08T02:38:16.146Z,102436.69
2023-04-08T02:40:43.325Z,102434.28
2023-04-08T02:43:09.829Z,102432.56
2023-04-08T02:45:42.455Z,102429.25
2023-04-08T02:48:10.384Z,102440.09
2023-04-08T02:50:37.315Z,102441.06
2023-04-08T02:53:04.000Z,102439.22
2023-04-08T02:55:32.672Z,102438.38
2023-04-08T02:57:59.182Z,102445.38
2023-04-08T03:00:26.074Z,102448.09
2023-04-08T03:02:52.619Z,102456.16
2023-04-08T03:05:19.320Z,102456.03
2023-04-08T03:07:45.876Z,102453.34
2023-04-08T03:10:12.457Z,102451.56
2023-04-08T03:12:39.096Z,102455.19
2023-04-08T03:15:06.285Z,102454.47
2023-04-08T03:17:34.446Z,102454.63
2023-04-08T03:20:01.780Z,102457.31
2023-04-08T03:22:28.295Z,102451.13
2023-04-08T03:24:54.733Z,102450.22
2023-04-08T03:27:21.237Z,102446.66
2023-04-08T03:29:47.875Z,102454.63
2023-04-08T03:32:14.575Z,102450.06
2023-04-08T03:34:41.083Z,102451.97
2023-04-08T03:37:07.776Z,102452.94
2023-04-08T03:39:34.274Z,102454.97
2023-04-08T03:42:01.233Z,102448.75
2023-04-08T03:44:27.869Z,102460.38
2023-04-08T03:46:54.402Z,102451.44
2023-04-08T03:49:20.909Z,102458.66
2023-04-08T03:51:47.336Z,102455.19
2023-04-08T03:54:13.811Z,102456.03
2023-04-08T03:56:40.405Z,102465.06
2023-04-08T03:59:06.980Z,102461.66
2023-04-08T04:01:33.405Z,102462.75
2023-04-08T04:03:59.991Z,102471.66
2023-04-08T04:06:27.494Z,102476.22
2023-04-08T04:08:55.535Z,102480.72
2023-04-08T04:11:22.500Z,102483.50
2023-04-08T04:13:49.353Z,102486.56
2023-04-08T04:16:15.947Z,102493.84
2023-04-08T04:18:42.822Z,102496.84
2023-04-08T04:21:09.576Z,102493.34
2023-04-08T04:23:36.134Z,102510.56
2023-04-08T04:26:02.668Z,102500.81
2023-04-08T04:28:29.112Z,102508.22
2023-04-08T04:30:56.794Z,102508.41
2023-04-08T04:33:23.345Z,102520.16
2023-04-08T04:35:49.921Z,102515.81
2023-04-08T04:38:16.418Z,102517.84
2023-04-08T04:40:44.308Z,102520.84
2023-04-08T04:43:11.158Z,102522.94
2023-04-08T04:45:37.609Z,102526.72
2023-04-08T04:48:04.278Z,102520.69
2023-04-08T04:50:30.837Z,102532.31
2023-04-08T04:52:57.238Z,102535.91
2023-04-08T04:55:23.737Z,102541.41
2023-04-08T04:57:50.340Z,102532.59
2023-04-08T05:00:17.146Z,102544.09
2023-04-08T05:02:43.921Z,102541.38
2023-04-08T05:05:11.174Z,102536.91
2023-04-08T05:07:38.900Z,102534.16
2023-04-08T05:10:06.039Z,102547.75
2023-04-08T05:12:32.666Z,102545.88
2023-04-08T05:15:02.242Z,102543.19
2023-04-08T05:17:28.769Z,102561.00
2023-04-08T05:19:55.249Z,102552.06
2023-04-08T05:22:21.888Z,102564.41
2023-04-08T05:24:48.897Z,102561.81
2023-04-08T05:27:15.656Z,102561.00
2023-04-08T05:29:42.488Z,102568.38
2023-04-08T05:32:08.978Z,102560.47
2023-04-08T05:34:35.513Z,102564.13
2023-04-08T05:37:02.099Z,102563.19
2023-04-08T05:39:28.546Z,102560.56
2023-04-08T05:41:55.178Z,102565.94
2023-04-08T05:44:21.689Z,102567.72
2023-04-08T05:46:48.282Z,102567.72
2023-04-08T05:49:15.611Z,102575.78
2023-04-08T05:51:42.033Z,102580.19
2023-04-08T05:54:08.775Z,102568.66
2023-04-08T05:56:36.564Z,102577.56
2023-04-08T05:59:03.036Z,102582.88
2023-04-08T06:01:29.755Z,102584.59
2023-04-08T06:03:56.826Z,102577.28
2023-04-08T06:06:23.906Z,102572.72
2023-04-08T06:08:50.788Z,102587.88
2023-04-08T06:11:17.508Z,102580.78
2023-04-08T06:13:43.941Z,102579.88
2023-04-08T06:16:15.328Z,102577.97
2023-04-08T06:18:42.152Z,102578.75
2023-04-08T06:21:09.016Z,102584.00
2023-04-08T06:23:35.879Z,102584.84
2023-04-08T06:26:02.271Z,102590.03
2023-04-08T06:28:32.505Z,102590.81
2023-04-08T06:30:59.585Z,102599.53
2023-04-08T06:33:26.052Z,102606.56
2023-04-08T06:35:52.693Z,102610.84
2023-04-08T06:38:19.275Z,102613.31
2023-04-08T06:40:45.767Z,102622.25
2023-04-08T06:43:12.308Z,102628.41
2023-04-08T06:45:40.286Z,102625.53
2023-04-08T06:48:09.018Z,102623.03
2023-04-08T06:50:35.913Z,102609.69
2023-04-08T06:53:02.372Z,102610.22
2023-04-08T06:55:28.858Z,102601.66
2023-04-08T06:57:55.302Z,102596.16
2023-04-08T07:00:22.162Z,102605.75
2023-04-08T07:02:48.753Z,102603.19
2023-04-08T07:05:15.514Z,102613.53
2023-04-08T07:07:41.994Z,102618.31
2023-04-08T07:10:10.918Z,102612.41
2023-04-08T07:12:37.765Z,102617.38
2023-04-08T07:15:04.590Z,102619.31
2023-04-08T07:17:31.040Z,102617.66
2023-04-08T07:19:57.701Z,102610.09
2023-04-08T07:22:24.106Z,102622.69
2023-04-08T07:24:50.584Z,102624.41
2023-04-08T07:27:17.360Z,102630.69
2023-04-08T07:29:43.860Z,102624.72
2023-04-08T07:32:10.418Z,102634.94
2023-04-08T07:34:37.122Z,102636.94
2023-04-08T07:37:03.589Z,102628.78
2023-04-08T07:39:30.238Z,102638.53
2023-04-08T07:41:57.242Z,102630.03
2023-04-08T07:44:23.704Z,102633.88
2023-04-08T07:46:51.647Z,102630.13
2023-04-08T07:49:18.295Z,102626.38
2023-04-08T07:51:44.802Z,102634.59
2023-04-08T07:54:12.465Z,102635.47
2023-04-08T07:56:40.491Z,102627.41
2023-04-08T07:59:07.118Z,102634.50
2023-04-08T08:01:35.650Z,102630.16
2023-04-08T08:04:03.526Z,102630.03
2023-04-08T08:06:33.742Z,102627.97
2023-04-08T08:09:01.072Z,102626.47
2023-04-08T08:11:28.035Z,102646.06
2023-04-08T08:13:54.562Z,102636.59
2023-04-08T08:16:21.267Z,102633.00
2023-04-08T08:18:47.816Z,102629.72
2023-04-08T08:21:14.553Z,102631.00
2023-04-08T08:23:40.974Z,102624.91
2023-04-08T08:26:12.160Z,102625.56
2023-04-08T08:28:39.480Z,102643.25
2023-04-08T08:31:06.487Z,102645.25
2023-04-08T08:33:33.517Z,102643.59
2023-04-08T08:36:00.075Z,102642.91
2023-04-08T08:38:27.037Z,102642.47
2023-04-08T08:40:57.723Z,102650.44
2023-04-08T08:43:29.002Z,102641.13
2023-04-08T08:45:55.651Z,102640.31
2023-04-08T08:48:22.062Z,102649.25
2023-04-08T08:50:48.585Z,102642.63
2023-04-08T08:53:15.329Z,102645.31
2023-04-08T08:58:11.244Z,102644.88
2023-04-08T09:00:40.465Z,102645.72
2023-04-08T09:03:19.978Z,102656.41
2023-04-08T09:06:02.768Z,102650.66
2023-04-08T09:08:38.097Z,102658.56
2023-04-08T09:11:16.218Z,102659.72
2023-04-08T09:13:43.749Z,102660.56
2023-04-08T09:16:12.077Z,102667.41
2023-04-08T09:18:39.459Z,102660.78
2023-04-08T09:21:07.111Z,102659.44
2023-04-08T09:23:46.739Z,102662.81
2023-04-08T09:26:19.695Z,102665.63
2023-04-08T09:29:24.016Z,102669.81
2023-04-08T09:31:56.799Z,102669.53
2023-04-08T09:34:24.369Z,102675.22
2023-04-08T09:36:51.578Z,102668.91
2023-04-08T09:39:18.456Z,102674.13
2023-04-08T09:41:48.429Z,102674.13
2023-04-08T09:44:20.649Z,102687.50
2023-04-08T09:46:49.852Z,102668.53
2023-04-08T09:49:25.540Z,102674.78
2023-04-08T09:52:07.875Z,102679.81
2023-04-08T09:54:51.160Z,102673.81
2023-04-08T09:57:26.633Z,102678.28
2023-04-08T10:00:01.340Z,102671.53
2023-04-08T10:02:31.556Z,102666.69
2023-04-08T10:05:01.450Z,102667.47
2023-04-08T10:07:28.015Z,102664.03
2023-04-08T10:09:54.475Z,102663.91
2023-04-08T10:12:21.178Z,102653.50
2023-04-08T10:15:25.128Z,102662.19
2023-04-08T10:17:56.705Z,102651.53
2023-04-08T10:20:38.710Z,102652.50
2023-04-08T10:23:09.039Z,102650.22
2023-04-08T10:25:37.082Z,102656.31
2023-04-08T10:28:17.556Z,102648.84
2023-04-08T10:30:57.273Z,102649.03
2023-04-08T10:33:31.036Z,102647.50
2023-04-08T10:36:09.829Z,102650.91
2023-04-08T10:38:36.236Z,102660.72
2023-04-08T10:41:02.763Z,102656.06
2023-04-08T10:43:36.707Z,102655.03
2023-04-08T10:46:04.850Z,102658.00
2023-04-08T10:48:31.753Z,102654.66
2023-04-08T10:51:00.909Z,102653.75
2023-04-08T10:53:39.167Z,102647.84
2023-04-08T10:56:07.167Z,102646.91
2023-04-08T10:58:35.216Z,102642.66
2023-04-08T11:01:09.645Z,102650.94
2023-04-08T11:03:37.228Z,102642.09
2023-04-08T11:06:04.276Z,102643.94
2023-04-08T11:08:34.941Z,102636.09
2023-04-08T11:11:01.987Z,102636.56
2023-04-08T11:13:28.899Z,102639.50
2023-04-08T11:15:57.051Z,102640.84
2023-04-08T11:18:24.144Z,102635.25
2023-04-08T11:20:52.551Z,102636.09
2023-04-08T11:23:19.478Z,102636.75
2023-04-08T11:25:47.795Z,102636.63
2023-04-08T11:28:15.096Z,102644.25
2023-04-08T11:30:42.023Z,102640.72
2023-04-08T11:33:09.146Z,102637.88
2023-04-08T11:35:43.171Z,102641.50
2023-04-08T11:38:12.771Z,102643.03
2023-04-08T11:40:39.310Z,102641.63
2023-04-08T11:43:15.276Z,102635.94
2023-04-08T11:45:42.360Z,102640.16
2023-04-08T11:48:14.384Z,102655.47
2023-04-08T11:50:42.076Z,102646.22
2023-04-08T11:53:18.398Z,102640.31
2023-04-08T11:55:44.883Z,102639.91
2023-04-08T11:58:11.396Z,102644.31
2023-04-08T12:00:38.576Z,102644.53
2023-04-08T12:03:06.487Z,102644.28
2023-04-08T12:05:33.208Z,102636.78
2023-04-08T12:07:59.673Z,102645.03
2023-04-08T12:10:26.502Z,102652.13
2023-04-08T12:12:53.096Z,102647.91
2023-04-08T12:15:19.803Z,102639.19
2023-04-08T12:17:46.247Z,102637.16
2023-04-08T12:20:13.306Z,102638.78
2023-04-08T12:22:39.833Z,102634.81
2023-04-08T12:25:06.661Z,102648.47
2023-04-08T12:27:33.529Z,102648.84
2023-04-08T12:30:00.975Z,102642.91
2023-04-08T12:32:27.550Z,102645.41
2023-04-08T12:34:54.239Z,102638.03
2023-04-08T12:37:20.854Z,102638.44
2023-04-08T12:39:47.830Z,102639.84
2023-04-08T12:42:15.099Z,102634.63
2023-04-08T12:44:41.529Z,102641.25
2023-04-08T12:47:08.140Z,102643.16
2023-04-08T12:49:46.602Z,102639.22
2023-04-08T12:52:16.194Z,102640.41
2023-04-08T12:54:43.656Z,102638.06
2023-04-08T12:57:10.042Z,102641.91
2023-04-08T12:59:38.025Z,102639.31
2023-04-08T13:02:04.624Z,102644.31
2023-04-08T13:04:31.116Z,102633.06
2023-04-08T13:06:57.600Z,102643.84
2023-04-08T13:09:24.131Z,102640.03
2023-04-08T13:11:50.733Z,102643.53
2023-04-08T13:14:17.320Z,102643.69
2023-04-08T13:16:43.811Z,102641.38
2023-04-08T13:19:10.310Z,102643.41
2023-04-08T13:21:36.720Z,102637.06
2023-04-08T13:24:03.308Z,102635.22
2023-04-08T13:26:29.809Z,102645.19
2023-04-08T13:28:57.960Z,102637.56
2023-04-08T13:31:25.467Z,102634.72
2023-04-08T13:33:52.570Z,102639.09
2023-04-08T13:36:20.375Z,102635.84
2023-04-08T13:38:46.852Z,102641.44
2023-04-08T13:41:13.395Z,102636.19
2023-04-08T13:43:39.875Z,102627.22
2023-04-08T13:46:06.420Z,102619.59
2023-04-08T13:48:32.917Z,102633.00
2023-04-08T13:50:59.414Z,102622.47
2023-04-08T13:53:26.129Z,102631.22
2023-04-08T13:55:55.143Z,102635.81
2023-04-08T13:58:24.126Z,102623.31
2023-04-08T14:00:51.676Z,102631.06
2023-04-08T14:03:18.687Z,102623.09
2023-04-08T14:05:45.418Z,102621.59
2023-04-08T14:08:13.601Z,102612.06
2023-04-08T14:10:41.966Z,102615.97
2023-04-08T14:13:08.947Z,102612.78
2023-04-08T14:15:37.457Z,102613.28
2023-04-08T14:18:04.002Z,102613.38
2023-04-08T14:20:30.478Z,102618.47
2023-04-08T14:22:57.667Z,102612.38
2023-04-08T14:25:24.460Z,102608.66
2023-04-08T14:27:58.445Z,102614.03
2023-04-08T14:30:26.845Z,102609.38
2023-04-08T14:32:53.661Z,102604.22
2023-04-08T14:35:20.169Z,102603.13
2023-04-08T14:37:47.019Z,102605.78
2023-04-08T14:40:13.637Z,102608.47
2023-04-08T14:42:40.169Z,102605.09
2023-04-08T14:45:07.142Z,102603.09
2023-04-08T14:47:33.615Z,102597.34
2023-04-08T14:50:00.364Z,102603.31
2023-04-08T14:52:27.319Z,102601.59
2023-04-08T14:54:53.739Z,102598.13
2023-04-08T14:57:20.309Z,102604.97
2023-04-08T14:59:46.816Z,102596.50
2023-04-08T15:02:13.478Z,102595.91
2023-04-08T15:04:40.062Z,102601.47
2023-04-08T15:07:07.501Z,102592.44
2023-04-08T15:09:34.196Z,102590.13
2023-04-08T15:12:01.169Z,102591.22
2023-04-08T15:14:27.654Z,102594.50
2023-04-08T15:16:54.180Z,102589.94
2023-04-08T15:19:21.019Z,102589.81
2023-04-08T15:21:47.454Z,102596.66
2023-04-08T15:24:14.148Z,102592.66
2023-04-08T15:26:40.900Z,102586.00
2023-04-08T15:29:07.487Z,102589.56
2023-04-08T15:31:35.012Z,102593.25
2023-04-08T15:34:03.503Z,102590.69
2023-04-08T15:36:30.850Z,102592.56
2023-04-08T15:38:57.336Z,102590.34
2023-04-08T15:41:23.838Z,102593.72
2023-04-08T15:43:51.934Z,102592.56
2023-04-08T15:46:19.284Z,102590.69
2023-04-08T15:48:45.961Z,102587.59
2023-04-08T15:51:13.500Z,102592.78
2023-04-08T15:53:42.945Z,102590.00
2023-04-08T15:56:15.934Z,102595.28
2023-04-08T15:58:42.618Z,102590.28
2023-04-08T16:01:09.096Z,102591.38
2023-04-08T16:03:35.751Z,102605.53
2023-04-08T16:06:02.228Z,102602.97
2023-04-08T16:08:29.401Z,102594.31
2023-04-08T16:11:03.804Z,102606.63
2023-04-08T16:13:30.978Z,102603.13
2023-04-08T16:15:58.424Z,102596.41
2023-04-08T16:18:25.790Z,102605.91
2023-04-08T16:20:52.626Z,102599.97
2023-04-08T16:23:19.113Z,102599.47
2023-04-08T16:25:45.911Z,102604.91
2023-04-08T16:28:12.921Z,102606.47
2023-04-08T16:30:42.828Z,102600.25
2023-04-08T16:33:11.191Z,102604.47
2023-04-08T16:35:37.715Z,102601.66
2023-04-08T16:38:09.478Z,102589.84
2023-04-08T16:40:36.030Z,102595.75
2023-04-08T16:43:04.234Z,102592.56
2023-04-08T16:45:31.339Z,102583.16
2023-04-08T16:47:58.071Z,102600.09
2023-04-08T16:50:24.891Z,102593.16
2023-04-08T16:52:51.722Z,102598.78
2023-04-08T16:55:19.336Z,102602.19
2023-04-08T16:57:45.905Z,102598.59
2023-04-08T17:00:12.740Z,102600.69
2023-04-08T17:02:39.288Z,102597.16
2023-04-08T17:05:06.279Z,102593.38
2023-04-08T17:07:32.894Z,102597.38
2023-04-08T17:09:59.611Z,102594.69
2023-04-08T17:12:26.479Z,102595.25
2023-04-08T17:14:53.724Z,102605.53
2023-04-08T17:17:20.285Z,102608.84
2023-04-08T17:19:47.138Z,102611.28
2023-04-08T17:22:13.582Z,102609.91
2023-04-08T17:24:40.591Z,102611.38
2023-04-08T17:27:07.071Z,102616.72
2023-04-08T17:29:33.570Z,102614.63
2023-04-08T17:32:00.041Z,102619.47
2023-04-08T17:34:26.595Z,102617.25
2023-04-08T17:36:53.044Z,102612.09
2023-04-08T17:39:19.527Z,102613.34
2023-04-08T17:41:46.219Z,102608.13
2023-04-08T17:44:12.701Z,102618.28
2023-04-08T17:46:39.244Z,102611.25
2023-04-08T17:49:05.850Z,102612.00
2023-04-08T17:51:32.883Z,102609.38
2023-04-08T17:53:59.428Z,102602.66
2023-04-08T17:56:27.702Z,102618.44
2023-04-08T17:58:54.355Z,102609.78
2023-04-08T18:01:22.417Z,102610.16
2023-04-08T18:03:51.205Z,102615.81
2023-04-08T18:06:18.010Z,102613.19
2023-04-08T18:08:45.424Z,102612.91
2023-04-08T18:11:12.296Z,102613.84
2023-04-08T18:13:38.840Z,102616.03
2023-04-08T18:16:05.627Z,102616.41
2023-04-08T18:18:32.117Z,102619.38
2023-04-08T18:21:01.408Z,102618.41
2023-04-08T18:23:27.857Z,102619.47
2023-04-08T18:25:54.316Z,102620.41
2023-04-08T18:28:22.450Z,102620.59
2023-04-08T18:30:52.807Z,102632.44
2023-04-08T18:33:19.317Z,102617.44
2023-04-08T18:35:45.810Z,102628.19
2023-04-08T18:38:12.281Z,102630.91
2023-04-08T18:40:39.019Z,102628.97
2023-04-08T18:43:05.995Z,102630.81
2023-04-08T18:45:32.391Z,102635.34
2023-04-08T18:47:59.190Z,102636.41
2023-04-08T18:50:25.945Z,102636.56
2023-04-08T18:52:52.858Z,102638.41
2023-04-08T18:55:19.317Z,102646.63
2023-04-08T18:57:46.082Z,102649.63
2023-04-08T19:00:12.774Z,102648.78
2023-04-08T19:02:39.311Z,102647.91
2023-04-08T19:05:06.277Z,102655.06
2023-04-08T19:07:32.988Z,102651.50
2023-04-08T19:09:59.403Z,102648.88
2023-04-08T19:12:26.667Z,102653.41
2023-04-08T19:14:53.973Z,102659.00
2023-04-08T19:17:20.555Z,102655.75
2023-04-08T19:19:47.079Z,102664.28
2023-04-08T19:22:13.561Z,102665.63
2023-04-08T19:24:40.075Z,102660.81
2023-04-08T19:27:06.552Z,102660.41
2023-04-08T19:29:34.000Z,102671.38
2023-04-08T19:32:01.573Z,102671.78
2023-04-08T19:34:28.080Z,102671.25
2023-04-08T19:36:54.640Z,102674.53
2023-04-08T19:39:21.118Z,102674.25
2023-04-08T19:41:47.926Z,102675.44
2023-04-08T19:44:14.431Z,102677.50
2023-04-08T19:46:40.912Z,102675.16
2023-04-08T19:49:07.471Z,102671.22
2023-04-08T19:51:33.992Z,102677.16
2023-04-08T19:54:00.574Z,102677.44
2023-04-08T19:56:27.864Z,102677.88
2023-04-08T19:58:54.487Z,102686.34
2023-04-08T20:01:21.343Z,102685.78
2023-04-08T20:03:50.206Z,102688.78
2023-04-08T20:06:20.242Z,102695.31
2023-04-08T20:08:46.720Z,102697.50
2023-04-08T20:11:13.944Z,102694.25
2023-04-08T20:13:40.590Z,102699.06
2023-04-08T20:16:10.024Z,102693.28
2023-04-08T20:18:36.599Z,102702.38
2023-04-08T20:21:03.255Z,102706.25
2023-04-08T20:23:29.789Z,102707.44
2023-04-08T20:25:56.771Z,102713.13
2023-04-08T20:28:23.668Z,102716.00
2023-04-08T20:30:50.191Z,102712.59
2023-04-08T20:33:16.612Z,102714.63
2023-04-08T20:35:43.234Z,102721.41
2023-04-08T20:38:09.717Z,102717.19
2023-04-08T20:40:36.248Z,102720.25
2023-04-08T20:43:02.727Z,102717.63
2023-04-08T20:45:29.211Z,102718.81
2023-04-08T20:47:55.805Z,102717.19
2023-04-08T20:50:22.362Z,102715.56
2023-04-08T20:52:48.796Z,102728.41
2023-04-08T20:55:15.501Z,102717.91
2023-04-08T20:57:42.115Z,102721.84
2023-04-08T21:00:09.448Z,102725.56
2023-04-08T21:02:36.435Z,102729.22
2023-04-08T21:05:03.339Z,102723.94
2023-04-08T21:07:30.399Z,102722.25
2023-04-08T21:09:56.826Z,102723.22
2023-04-08T21:12:23.312Z,102725.16
2023-04-08T21:14:50.763Z,102728.94
2023-04-08T21:17:17.334Z,102728.19
2023-04-08T21:19:43.785Z,102730.09
2023-04-08T21:22:10.360Z,102738.25
2023-04-08T21:24:37.871Z,102733.91
2023-04-08T21:27:04.428Z,102725.09
2023-04-08T21:29:30.897Z,102726.97
2023-04-08T21:31:57.831Z,102715.56
2023-04-08T21:34:24.287Z,102732.47
2023-04-08T21:36:50.868Z,102730.69
2023-04-08T21:39:17.555Z,102730.63
2023-04-08T21:41:44.083Z,102719.00
2023-04-08T21:44:10.594Z,102722.50
2023-04-08T21:46:37.110Z,102718.88
2023-04-08T21:49:03.525Z,102723.31
2023-04-08T21:51:30.028Z,102725.13
2023-04-08T21:53:56.496Z,102723.56
2023-04-08T21:56:24.491Z,102724.56
2023-04-08T21:58:51.108Z,102729.03
2023-04-08T22:01:17.792Z,102735.19
2023-04-08T22:03:44.766Z,102729.72
2023-04-08T22:06:19.214Z,102733.97
2023-04-08T22:08:52.253Z,102726.53
2023-04-08T22:11:19.017Z,102726.25
2023-04-08T22:13:45.493Z,102725.16
2023-04-08T22:16:12.092Z,102731.16
2023-04-08T22:18:38.562Z,102728.28
2023-04-08T22:21:05.121Z,102732.53
2023-04-08T22:23:31.976Z,102735.88
2023-04-08T22:25:58.514Z,102728.59
2023-04-08T22:28:25.017Z,102725.91
2023-04-08T22:30:54.835Z,102730.47
2023-04-08T22:33:21.806Z,102732.97
2023-04-08T22:35:48.358Z,102736.50
2023-04-08T22:38:14.817Z,102730.28
2023-04-08T22:40:41.288Z,102731.09
2023-04-08T22:43:07.744Z,102733.94
2023-04-08T22:45:36.552Z,102736.63
2023-04-08T22:48:03.198Z,102728.53
2023-04-08T22:50:29.688Z,102730.34
2023-04-08T22:52:56.109Z,102731.03
2023-04-08T22:55:22.521Z,102730.09
2023-04-08T22:57:49.010Z,102727.28
2023-04-08T23:00:15.904Z,102724.63
2023-04-08T23:02:42.433Z,102730.97
2023-04-08T23:05:09.329Z,102726.53
2023-04-08T23:07:35.801Z,102726.47
2023-04-08T23:10:02.291Z,102723.72
2023-04-08T23:12:28.697Z,102732.63
2023-04-08T23:14:55.453Z,102728.09
2023-04-08T23:17:21.903Z,102727.22
2023-04-08T23:19:48.368Z,102727.16
2023-04-08T23:22:14.870Z,102728.84
2023-04-08T23:24:41.382Z,102721.56
2023-04-08T23:27:08.725Z,102725.38
2023-04-08T23:29:35.201Z,102719.13
2023-04-08T23:32:01.661Z,102722.81
2023-04-08T23:34:28.114Z,102721.16
2023-04-08T23:36:54.612Z,102720.94
2023-04-08T23:39:21.186Z,102720.81
2023-04-08T23:41:47.639Z,102722.59
2023-04-08T23:44:14.119Z,102722.63
2023-04-08T23:46:40.781Z,102718.13
2023-04-08T23:49:07.314Z,102717.28
2023-04-08T23:51:33.904Z,102715.56
2023-04-08T23:54:00.460Z,102710.16
2023-04-08T23:56:27.273Z,102703.75
2023-04-08T23:58:55.335Z,102705.59
